Terminal Aerodrome Forecast
Issued by NWS

Home | Current Version | Previous Version | Text Only | Print | Product List | Glossary On
Versions: 1 2 3 4 5 6 7 8 9 10 11 12 13 14 15
000
FTUS46 KSTO 050529
TAFRBL
TAF
KRBL 050529Z 0506/0606 31015G22KT P6SM SKC
     FM051700 34018G25KT P6SM SKC
     FM060200 34012KT P6SM SKC=

USA.gov is the U.S. government's official web portal to all federal, state and local government web resources and services.